sensor_id;sensor_type;location;lat;lon;timestamp;temperature;humidity
23087;DHT22;11712;51.134;4.156;2023-03-11T00:02:10;1.30;99.90
23087;DHT22;11712;51.134;4.156;2023-03-11T00:04:36;1.20;99.90
23087;DHT22;11712;51.134;4.156;2023-03-11T00:07:06;1.30;99.90
23087;DHT22;11712;51.134;4.156;2023-03-11T00:09:32;1.20;99.90
23087;DHT22;11712;51.134;4.156;2023-03-11T00:11:59;1.20;99.90
23087;DHT22;11712;51.134;4.156;2023-03-11T00:14:24;1.20;99.90
23087;DHT22;11712;51.134;4.156;2023-03-11T00:16:50;1.20;99.90
23087;DHT22;11712;51.134;4.156;2023-03-11T00:19:16;1.20;99.90
23087;DHT22;11712;51.134;4.156;2023-03-11T00:21:41;1.20;99.90
23087;DHT22;11712;51.134;4.156;2023-03-11T00:24:07;1.20;99.90
23087;DHT22;11712;51.134;4.156;2023-03-11T00:26:33;1.30;99.90
23087;DHT22;11712;51.134;4.156;2023-03-11T00:28:58;1.30;99.90
23087;DHT22;11712;51.134;4.156;2023-03-11T00:31:24;1.20;99.90
23087;DHT22;11712;51.134;4.156;2023-03-11T00:33:52;1.20;99.90
23087;DHT22;11712;51.134;4.156;2023-03-11T00:36:27;1.30;99.90
23087;DHT22;11712;51.134;4.156;2023-03-11T00:40:24;1.40;99.90
23087;DHT22;11712;51.134;4.156;2023-03-11T00:42:50;1.50;99.90
23087;DHT22;11712;51.134;4.156;2023-03-11T00:45:17;1.50;99.90
23087;DHT22;11712;51.134;4.156;2023-03-11T00:47:43;1.60;99.90
23087;DHT22;11712;51.134;4.156;2023-03-11T00:50:14;1.60;99.90
23087;DHT22;11712;51.134;4.156;2023-03-11T00:52:43;1.60;99.90
23087;DHT22;11712;51.134;4.156;2023-03-11T00:55:09;1.70;99.90
23087;DHT22;11712;51.134;4.156;2023-03-11T00:57:35;1.70;99.90
23087;DHT22;11712;51.134;4.156;2023-03-11T01:00:01;1.70;99.90
23087;DHT22;11712;51.134;4.156;2023-03-11T01:02:26;1.70;99.90
23087;DHT22;11712;51.134;4.156;2023-03-11T01:04:53;1.70;99.90
23087;DHT22;11712;51.134;4.156;2023-03-11T01:07:20;1.90;99.90
23087;DHT22;11712;51.134;4.156;2023-03-11T01:09:46;1.90;99.90
23087;DHT22;11712;51.134;4.156;2023-03-11T01:12:12;2.00;99.90
23087;DHT22;11712;51.134;4.156;2023-03-11T01:14:37;2.00;99.90
23087;DHT22;11712;51.134;4.156;2023-03-11T01:17:03;1.90;99.90
23087;DHT22;11712;51.134;4.156;2023-03-11T01:19:29;2.00;99.90
23087;DHT22;11712;51.134;4.156;2023-03-11T01:21:54;1.90;99.90
23087;DHT22;11712;51.134;4.156;2023-03-11T01:24:20;2.00;99.90
23087;DHT22;11712;51.134;4.156;2023-03-11T01:26:45;2.00;99.90
23087;DHT22;11712;51.134;4.156;2023-03-11T01:29:11;1.90;99.90
23087;DHT22;11712;51.134;4.156;2023-03-11T01:31:37;1.80;99.90
23087;DHT22;11712;51.134;4.156;2023-03-11T01:34:02;1.80;99.90
23087;DHT22;11712;51.134;4.156;2023-03-11T01:36:28;1.60;99.90
23087;DHT22;11712;51.134;4.156;2023-03-11T01:38:54;1.60;99.90
23087;DHT22;11712;51.134;4.156;2023-03-11T01:41:19;1.60;99.90
23087;DHT22;11712;51.134;4.156;2023-03-11T01:43:46;1.60;99.90
23087;DHT22;11712;51.134;4.156;2023-03-11T01:46:19;1.50;99.90
23087;DHT22;11712;51.134;4.156;2023-03-11T01:48:49;1.40;99.90
23087;DHT22;11712;51.134;4.156;2023-03-11T01:51:26;1.30;99.90
23087;DHT22;11712;51.134;4.156;2023-03-11T01:53:54;1.30;99.90
23087;DHT22;11712;51.134;4.156;2023-03-11T01:56:20;1.30;99.90
23087;DHT22;11712;51.134;4.156;2023-03-11T01:58:48;1.40;99.90
23087;DHT22;11712;51.134;4.156;2023-03-11T02:01:18;1.40;99.90
23087;DHT22;11712;51.134;4.156;2023-03-11T02:03:44;1.40;99.90
23087;DHT22;11712;51.134;4.156;2023-03-11T02:06:16;1.50;99.90
23087;DHT22;11712;51.134;4.156;2023-03-11T02:08:43;1.60;99.90
23087;DHT22;11712;51.134;4.156;2023-03-11T02:11:13;1.60;99.90
23087;DHT22;11712;51.134;4.156;2023-03-11T02:13:40;1.60;99.90
23087;DHT22;11712;51.134;4.156;2023-03-11T02:16:07;1.60;99.90
23087;DHT22;11712;51.134;4.156;2023-03-11T02:18:33;1.70;99.90
23087;DHT22;11712;51.134;4.156;2023-03-11T02:21:20;1.60;99.90
23087;DHT22;11712;51.134;4.156;2023-03-11T02:27:00;1.60;99.90
23087;DHT22;11712;51.134;4.156;2023-03-11T02:29:27;1.60;99.90
23087;DHT22;11712;51.134;4.156;2023-03-11T02:31:55;1.70;99.90
23087;DHT22;11712;51.134;4.156;2023-03-11T02:34:30;1.70;99.90
23087;DHT22;11712;51.134;4.156;2023-03-11T02:36:57;1.70;99.90
23087;DHT22;11712;51.134;4.156;2023-03-11T02:39:41;1.70;99.90
23087;DHT22;11712;51.134;4.156;2023-03-11T02:44:39;1.60;99.90
23087;DHT22;11712;51.134;4.156;2023-03-11T02:47:06;1.50;99.90
23087;DHT22;11712;51.134;4.156;2023-03-11T02:49:32;1.50;99.90
23087;DHT22;11712;51.134;4.156;2023-03-11T02:51:58;1.50;99.90
23087;DHT22;11712;51.134;4.156;2023-03-11T02:54:24;1.50;99.90
23087;DHT22;11712;51.134;4.156;2023-03-11T02:56:50;1.40;99.90
23087;DHT22;11712;51.134;4.156;2023-03-11T02:59:15;1.40;99.90
23087;DHT22;11712;51.134;4.156;2023-03-11T03:01:42;1.40;99.90
23087;DHT22;11712;51.134;4.156;2023-03-11T03:04:07;1.40;99.90
23087;DHT22;11712;51.134;4.156;2023-03-11T03:06:33;1.40;99.90
23087;DHT22;11712;51.134;4.156;2023-03-11T03:08:59;1.40;99.90
23087;DHT22;11712;51.134;4.156;2023-03-11T03:11:24;1.40;99.90
23087;DHT22;11712;51.134;4.156;2023-03-11T03:13:50;1.40;99.90
23087;DHT22;11712;51.134;4.156;2023-03-11T03:16:16;1.50;99.90
23087;DHT22;11712;51.134;4.156;2023-03-11T03:18:41;1.60;99.90
23087;DHT22;11712;51.134;4.156;2023-03-11T03:21:07;1.70;99.90
23087;DHT22;11712;51.134;4.156;2023-03-11T03:23:33;1.80;99.90
23087;DHT22;11712;51.134;4.156;2023-03-11T03:26:05;2.00;99.90
23087;DHT22;11712;51.134;4.156;2023-03-11T03:28:31;2.20;99.90
23087;DHT22;11712;51.134;4.156;2023-03-11T03:31:07;2.30;99.90
23087;DHT22;11712;51.134;4.156;2023-03-11T03:34:01;2.30;99.90
23087;DHT22;11712;51.134;4.156;2023-03-11T03:36:27;2.20;99.90
23087;DHT22;11712;51.134;4.156;2023-03-11T03:38:56;2.10;99.90
23087;DHT22;11712;51.134;4.156;2023-03-11T03:41:22;2.00;99.90
23087;DHT22;11712;51.134;4.156;2023-03-11T03:43:48;2.00;99.90
23087;DHT22;11712;51.134;4.156;2023-03-11T03:46:14;2.00;99.90
23087;DHT22;11712;51.134;4.156;2023-03-11T03:48:40;2.00;99.90
23087;DHT22;11712;51.134;4.156;2023-03-11T03:51:08;1.90;99.90
23087;DHT22;11712;51.134;4.156;2023-03-11T03:53:35;1.80;99.90
23087;DHT22;11712;51.134;4.156;2023-03-11T03:56:13;1.80;99.90
23087;DHT22;11712;51.134;4.156;2023-03-11T03:58:38;1.80;99.90
23087;DHT22;11712;51.134;4.156;2023-03-11T04:01:05;1.80;99.90
23087;DHT22;11712;51.134;4.156;2023-03-11T04:03:31;1.70;99.90
23087;DHT22;11712;51.134;4.156;2023-03-11T04:06:08;1.70;99.90
23087;DHT22;11712;51.134;4.156;2023-03-11T04:08:34;1.70;99.90
23087;DHT22;11712;51.134;4.156;2023-03-11T04:11:00;1.60;99.90
23087;DHT22;11712;51.134;4.156;2023-03-11T04:13:26;1.60;99.90
23087;DHT22;11712;51.134;4.156;2023-03-11T04:15:51;1.70;99.90
23087;DHT22;11712;51.134;4.156;2023-03-11T04:18:17;1.70;99.90
23087;DHT22;11712;51.134;4.156;2023-03-11T04:20:43;1.60;99.90
23087;DHT22;11712;51.134;4.156;2023-03-11T04:23:08;1.60;99.90
23087;DHT22;11712;51.134;4.156;2023-03-11T04:26:06;1.60;99.90
23087;DHT22;11712;51.134;4.156;2023-03-11T04:28:31;1.70;99.90
23087;DHT22;11712;51.134;4.156;2023-03-11T04:30:57;1.70;99.90
23087;DHT22;11712;51.134;4.156;2023-03-11T04:33:23;1.70;99.90
23087;DHT22;11712;51.134;4.156;2023-03-11T04:35:49;1.70;99.90
23087;DHT22;11712;51.134;4.156;2023-03-11T04:38:15;1.70;99.90
23087;DHT22;11712;51.134;4.156;2023-03-11T04:40:40;1.80;99.90
23087;DHT22;11712;51.134;4.156;2023-03-11T04:43:06;1.90;99.90
23087;DHT22;11712;51.134;4.156;2023-03-11T04:45:32;1.90;99.90
23087;DHT22;11712;51.134;4.156;2023-03-11T04:47:57;2.00;99.90
23087;DHT22;11712;51.134;4.156;2023-03-11T04:50:23;2.00;99.90
23087;DHT22;11712;51.134;4.156;2023-03-11T04:52:49;1.80;99.90
23087;DHT22;11712;51.134;4.156;2023-03-11T04:55:15;1.70;99.90
23087;DHT22;11712;51.134;4.156;2023-03-11T04:57:42;1.50;99.90
23087;DHT22;11712;51.134;4.156;2023-03-11T05:00:10;1.40;99.90
23087;DHT22;11712;51.134;4.156;2023-03-11T05:02:37;1.40;99.90
23087;DHT22;11712;51.134;4.156;2023-03-11T05:05:04;1.40;99.90
23087;DHT22;11712;51.134;4.156;2023-03-11T05:07:30;1.40;99.90
23087;DHT22;11712;51.134;4.156;2023-03-11T05:09:55;1.40;99.90
23087;DHT22;11712;51.134;4.156;2023-03-11T05:12:21;1.50;99.90
23087;DHT22;11712;51.134;4.156;2023-03-11T05:14:47;1.50;99.90
23087;DHT22;11712;51.134;4.156;2023-03-11T05:17:12;1.50;99.90
23087;DHT22;11712;51.134;4.156;2023-03-11T05:19:39;1.50;99.90
23087;DHT22;11712;51.134;4.156;2023-03-11T05:22:06;1.30;99.90
23087;DHT22;11712;51.134;4.156;2023-03-11T05:24:32;1.20;99.90
23087;DHT22;11712;51.134;4.156;2023-03-11T05:26:58;1.20;99.90
23087;DHT22;11712;51.134;4.156;2023-03-11T05:29:24;1.20;99.90
23087;DHT22;11712;51.134;4.156;2023-03-11T05:31:50;1.10;99.90
23087;DHT22;11712;51.134;4.156;2023-03-11T05:34:16;1.00;99.90
23087;DHT22;11712;51.134;4.156;2023-03-11T05:36:43;0.90;99.90
23087;DHT22;11712;51.134;4.156;2023-03-11T05:39:09;1.00;99.90
23087;DHT22;11712;51.134;4.156;2023-03-11T05:41:35;1.00;99.90
23087;DHT22;11712;51.134;4.156;2023-03-11T05:44:01;1.00;99.90
23087;DHT22;11712;51.134;4.156;2023-03-11T05:46:27;0.90;99.90
23087;DHT22;11712;51.134;4.156;2023-03-11T05:48:52;1.00;99.90
23087;DHT22;11712;51.134;4.156;2023-03-11T05:51:18;1.00;99.90
23087;DHT22;11712;51.134;4.156;2023-03-11T05:53:46;1.00;99.90
23087;DHT22;11712;51.134;4.156;2023-03-11T05:56:16;1.00;99.90
23087;DHT22;11712;51.134;4.156;2023-03-11T05:58:43;1.00;99.90
23087;DHT22;11712;51.134;4.156;2023-03-11T06:01:09;1.00;99.90
23087;DHT22;11712;51.134;4.156;2023-03-11T06:03:36;1.10;99.90
23087;DHT22;11712;51.134;4.156;2023-03-11T06:06:04;1.10;99.90
23087;DHT22;11712;51.134;4.156;2023-03-11T06:08:30;1.10;99.90
23087;DHT22;11712;51.134;4.156;2023-03-11T06:11:04;1.10;99.90
23087;DHT22;11712;51.134;4.156;2023-03-11T06:13:30;1.20;99.90
23087;DHT22;11712;51.134;4.156;2023-03-11T06:15:56;1.40;99.90
23087;DHT22;11712;51.134;4.156;2023-03-11T06:18:21;1.40;99.90
23087;DHT22;11712;51.134;4.156;2023-03-11T06:20:47;1.30;99.90
23087;DHT22;11712;51.134;4.156;2023-03-11T06:24:38;1.10;99.90
23087;DHT22;11712;51.134;4.156;2023-03-11T06:27:04;1.00;99.90
23087;DHT22;11712;51.134;4.156;2023-03-11T06:29:29;0.90;99.90
23087;DHT22;11712;51.134;4.156;2023-03-11T06:31:55;0.80;99.90
23087;DHT22;11712;51.134;4.156;2023-03-11T06:34:21;0.80;99.90
23087;DHT22;11712;51.134;4.156;2023-03-11T06:36:48;0.80;99.90
23087;DHT22;11712;51.134;4.156;2023-03-11T06:39:14;0.70;99.90
23087;DHT22;11712;51.134;4.156;2023-03-11T06:41:40;0.90;99.90
23087;DHT22;11712;51.134;4.156;2023-03-11T06:44:08;1.10;99.90
23087;DHT22;11712;51.134;4.156;2023-03-11T06:46:34;1.10;99.90
23087;DHT22;11712;51.134;4.156;2023-03-11T06:49:00;1.10;99.90
23087;DHT22;11712;51.134;4.156;2023-03-11T06:51:26;1.10;99.90
23087;DHT22;11712;51.134;4.156;2023-03-11T06:53:52;1.10;99.90
23087;DHT22;11712;51.134;4.156;2023-03-11T06:56:20;1.00;99.90
23087;DHT22;11712;51.134;4.156;2023-03-11T06:58:46;1.10;99.90
23087;DHT22;11712;51.134;4.156;2023-03-11T07:01:14;1.20;99.90
23087;DHT22;11712;51.134;4.156;2023-03-11T07:03:41;1.30;99.90
23087;DHT22;11712;51.134;4.156;2023-03-11T07:06:15;1.40;99.90
23087;DHT22;11712;51.134;4.156;2023-03-11T07:08:41;1.50;99.90
23087;DHT22;11712;51.134;4.156;2023-03-11T07:11:14;1.70;99.90
23087;DHT22;11712;51.134;4.156;2023-03-11T07:13:40;1.80;99.90
23087;DHT22;11712;51.134;4.156;2023-03-11T07:16:11;1.90;99.90
23087;DHT22;11712;51.134;4.156;2023-03-11T07:18:37;1.90;99.90
23087;DHT22;11712;51.134;4.156;2023-03-11T07:21:05;2.00;99.90
23087;DHT22;11712;51.134;4.156;2023-03-11T07:23:31;2.00;99.90
23087;DHT22;11712;51.134;4.156;2023-03-11T07:25:57;1.90;99.90
23087;DHT22;11712;51.134;4.156;2023-03-11T07:28:25;1.90;99.90
23087;DHT22;11712;51.134;4.156;2023-03-11T07:30:51;2.00;99.90
23087;DHT22;11712;51.134;4.156;2023-03-11T07:33:18;2.10;99.90
23087;DHT22;11712;51.134;4.156;2023-03-11T07:35:44;2.20;99.90
23087;DHT22;11712;51.134;4.156;2023-03-11T07:38:09;2.30;99.90
23087;DHT22;11712;51.134;4.156;2023-03-11T07:40:35;2.40;99.90
23087;DHT22;11712;51.134;4.156;2023-03-11T07:43:01;2.60;99.90
23087;DHT22;11712;51.134;4.156;2023-03-11T07:45:27;2.60;99.90
23087;DHT22;11712;51.134;4.156;2023-03-11T07:47:53;2.50;99.90
23087;DHT22;11712;51.134;4.156;2023-03-11T07:50:19;2.50;99.90
23087;DHT22;11712;51.134;4.156;2023-03-11T07:52:47;2.60;99.90
23087;DHT22;11712;51.134;4.156;2023-03-11T07:55:13;2.60;99.90
23087;DHT22;11712;51.134;4.156;2023-03-11T07:57:39;2.70;99.90
23087;DHT22;11712;51.134;4.156;2023-03-11T08:00:05;2.80;99.90
23087;DHT22;11712;51.134;4.156;2023-03-11T08:02:30;2.80;99.90
23087;DHT22;11712;51.134;4.156;2023-03-11T08:04:56;2.90;99.90
23087;DHT22;11712;51.134;4.156;2023-03-11T08:07:22;3.10;99.90
23087;DHT22;11712;51.134;4.156;2023-03-11T08:09:48;3.20;99.90
23087;DHT22;11712;51.134;4.156;2023-03-11T08:14:24;3.40;99.90
23087;DHT22;11712;51.134;4.156;2023-03-11T08:16:50;3.70;99.90
23087;DHT22;11712;51.134;4.156;2023-03-11T08:19:16;3.90;99.90
23087;DHT22;11712;51.134;4.156;2023-03-11T08:21:41;4.00;99.90
23087;DHT22;11712;51.134;4.156;2023-03-11T08:24:10;4.20;99.90
23087;DHT22;11712;51.134;4.156;2023-03-11T08:26:37;4.30;99.90
23087;DHT22;11712;51.134;4.156;2023-03-11T08:29:03;4.40;99.90
23087;DHT22;11712;51.134;4.156;2023-03-11T08:31:30;4.60;99.90
23087;DHT22;11712;51.134;4.156;2023-03-11T08:33:59;4.60;99.90
23087;DHT22;11712;51.134;4.156;2023-03-11T08:36:25;4.50;99.90
23087;DHT22;11712;51.134;4.156;2023-03-11T08:38:51;4.70;99.90
23087;DHT22;11712;51.134;4.156;2023-03-11T08:41:17;4.90;99.90
23087;DHT22;11712;51.134;4.156;2023-03-11T08:43:43;5.00;99.90
23087;DHT22;11712;51.134;4.156;2023-03-11T08:46:16;4.90;99.90
23087;DHT22;11712;51.134;4.156;2023-03-11T08:48:42;4.80;99.90
23087;DHT22;11712;51.134;4.156;2023-03-11T08:51:10;4.90;99.90
23087;DHT22;11712;51.134;4.156;2023-03-11T08:53:36;4.90;99.90
23087;DHT22;11712;51.134;4.156;2023-03-11T08:56:02;4.80;99.90
23087;DHT22;11712;51.134;4.156;2023-03-11T08:58:28;4.80;99.90
23087;DHT22;11712;51.134;4.156;2023-03-11T09:00:54;4.90;99.90
23087;DHT22;11712;51.134;4.156;2023-03-11T09:03:20;5.00;99.90
23087;DHT22;11712;51.134;4.156;2023-03-11T09:07:31;5.10;99.90
23087;DHT22;11712;51.134;4.156;2023-03-11T09:09:57;5.20;99.90
23087;DHT22;11712;51.134;4.156;2023-03-11T09:12:22;5.20;99.90
23087;DHT22;11712;51.134;4.156;2023-03-11T09:14:48;5.20;99.90
23087;DHT22;11712;51.134;4.156;2023-03-11T09:17:14;5.30;99.90
23087;DHT22;11712;51.134;4.156;2023-03-11T09:19:39;5.50;99.90
23087;DHT22;11712;51.134;4.156;2023-03-11T09:22:05;5.60;99.90
23087;DHT22;11712;51.134;4.156;2023-03-11T09:24:34;5.70;99.90
23087;DHT22;11712;51.134;4.156;2023-03-11T09:27:01;6.00;99.90
23087;DHT22;11712;51.134;4.156;2023-03-11T09:29:26;6.10;99.90
23087;DHT22;11712;51.134;4.156;2023-03-11T09:31:52;6.30;99.90
23087;DHT22;11712;51.134;4.156;2023-03-11T09:34:18;6.50;99.90
23087;DHT22;11712;51.134;4.156;2023-03-11T09:36:44;6.70;99.90
23087;DHT22;11712;51.134;4.156;2023-03-11T09:39:10;6.70;99.90
23087;DHT22;11712;51.134;4.156;2023-03-11T09:41:52;7.00;99.90
23087;DHT22;11712;51.134;4.156;2023-03-11T09:52:52;6.90;99.90
23087;DHT22;11712;51.134;4.156;2023-03-11T09:55:45;6.40;99.90
23087;DHT22;11712;51.134;4.156;2023-03-11T09:58:25;6.40;99.90
23087;DHT22;11712;51.134;4.156;2023-03-11T10:00:51;6.30;99.90
23087;DHT22;11712;51.134;4.156;2023-03-11T10:03:26;6.80;99.90
23087;DHT22;11712;51.134;4.156;2023-03-11T10:06:00;7.20;99.90
23087;DHT22;11712;51.134;4.156;2023-03-11T10:08:41;7.40;99.90
23087;DHT22;11712;51.134;4.156;2023-03-11T10:11:28;7.50;99.90
23087;DHT22;11712;51.134;4.156;2023-03-11T10:17:00;7.20;99.90
23087;DHT22;11712;51.134;4.156;2023-03-11T10:25:15;7.30;99.90
23087;DHT22;11712;51.134;4.156;2023-03-11T10:27:44;7.20;99.90
23087;DHT22;11712;51.134;4.156;2023-03-11T10:30:57;7.30;99.90
23087;DHT22;11712;51.134;4.156;2023-03-11T10:35:45;7.60;99.90
23087;DHT22;11712;51.134;4.156;2023-03-11T10:38:41;7.90;99.90
23087;DHT22;11712;51.134;4.156;2023-03-11T10:41:27;8.20;99.90
23087;DHT22;11712;51.134;4.156;2023-03-11T10:44:05;8.80;99.90
23087;DHT22;11712;51.134;4.156;2023-03-11T10:46:32;8.60;99.90
23087;DHT22;11712;51.134;4.156;2023-03-11T10:48:57;8.50;99.90
23087;DHT22;11712;51.134;4.156;2023-03-11T10:51:31;8.30;99.90
23087;DHT22;11712;51.134;4.156;2023-03-11T10:54:00;8.70;99.90
23087;DHT22;11712;51.134;4.156;2023-03-11T10:56:30;9.00;99.90
23087;DHT22;11712;51.134;4.156;2023-03-11T10:58:57;9.20;99.90
23087;DHT22;11712;51.134;4.156;2023-03-11T11:01:24;9.20;99.90
23087;DHT22;11712;51.134;4.156;2023-03-11T11:03:53;9.00;99.90
23087;DHT22;11712;51.134;4.156;2023-03-11T11:09:13;8.50;99.90
23087;DHT22;11712;51.134;4.156;2023-03-11T11:11:40;8.30;99.90
23087;DHT22;11712;51.134;4.156;2023-03-11T11:14:06;8.20;99.90
23087;DHT22;11712;51.134;4.156;2023-03-11T11:16:34;8.50;99.90
23087;DHT22;11712;51.134;4.156;2023-03-11T11:19:13;8.70;99.90
23087;DHT22;11712;51.134;4.156;2023-03-11T11:21:47;9.10;99.90
23087;DHT22;11712;51.134;4.156;2023-03-11T11:24:26;9.30;99.90
23087;DHT22;11712;51.134;4.156;2023-03-11T11:27:16;9.40;99.90
23087;DHT22;11712;51.134;4.156;2023-03-11T11:29:43;9.50;99.90
23087;DHT22;11712;51.134;4.156;2023-03-11T11:32:20;9.40;99.90
23087;DHT22;11712;51.134;4.156;2023-03-11T11:38:42;9.10;99.90
23087;DHT22;11712;51.134;4.156;2023-03-11T11:41:14;8.70;99.90
23087;DHT22;11712;51.134;4.156;2023-03-11T11:43:50;8.60;99.90
23087;DHT22;11712;51.134;4.156;2023-03-11T11:51:40;7.90;99.90
23087;DHT22;11712;51.134;4.156;2023-03-11T11:54:32;7.80;99.90
23087;DHT22;11712;51.134;4.156;2023-03-11T11:57:14;8.00;99.90
23087;DHT22;11712;51.134;4.156;2023-03-11T11:59:40;8.10;99.90
23087;DHT22;11712;51.134;4.156;2023-03-11T12:05:06;8.50;99.90
23087;DHT22;11712;51.134;4.156;2023-03-11T12:07:37;8.90;99.90
23087;DHT22;11712;51.134;4.156;2023-03-11T12:17:00;9.00;99.90
23087;DHT22;11712;51.134;4.156;2023-03-11T12:27:47;9.00;99.90
23087;DHT22;11712;51.134;4.156;2023-03-11T12:30:20;9.00;99.90
23087;DHT22;11712;51.134;4.156;2023-03-11T12:32:56;9.30;99.90
23087;DHT22;11712;51.134;4.156;2023-03-11T12:35:29;9.40;99.90
23087;DHT22;11712;51.134;4.156;2023-03-11T12:46:02;9.30;99.90
23087;DHT22;11712;51.134;4.156;2023-03-11T12:50:55;9.30;99.90
23087;DHT22;11712;51.134;4.156;2023-03-11T12:53:48;9.30;99.90
23087;DHT22;11712;51.134;4.156;2023-03-11T13:02:18;8.70;99.90
23087;DHT22;11712;51.134;4.156;2023-03-11T13:08:02;8.90;99.90
23087;DHT22;11712;51.134;4.156;2023-03-11T13:10:53;8.80;99.90
23087;DHT22;11712;51.134;4.156;2023-03-11T13:15:55;8.80;99.90
23087;DHT22;11712;51.134;4.156;2023-03-11T13:18:24;9.00;99.90
23087;DHT22;11712;51.134;4.156;2023-03-11T13:20:57;8.90;99.90
23087;DHT22;11712;51.134;4.156;2023-03-11T13:23:28;8.90;99.90
23087;DHT22;11712;51.134;4.156;2023-03-11T13:26:36;9.10;99.90
23087;DHT22;11712;51.134;4.156;2023-03-11T13:41:46;8.10;99.90
23087;DHT22;11712;51.134;4.156;2023-03-11T13:46:44;8.80;99.90
23087;DHT22;11712;51.134;4.156;2023-03-11T13:49:21;9.00;99.90
23087;DHT22;11712;51.134;4.156;2023-03-11T13:51:48;9.00;99.90
23087;DHT22;11712;51.134;4.156;2023-03-11T13:56:45;9.50;99.90
23087;DHT22;11712;51.134;4.156;2023-03-11T14:01:52;9.20;99.90
23087;DHT22;11712;51.134;4.156;2023-03-11T14:04:19;9.20;99.90
23087;DHT22;11712;51.134;4.156;2023-03-11T14:06:47;9.20;99.90
23087;DHT22;11712;51.134;4.156;2023-03-11T14:09:20;9.10;99.90
23087;DHT22;11712;51.134;4.156;2023-03-11T14:11:46;9.20;99.90
23087;DHT22;11712;51.134;4.156;2023-03-11T14:16:57;9.60;99.90
23087;DHT22;11712;51.134;4.156;2023-03-11T14:19:23;9.70;99.90
23087;DHT22;11712;51.134;4.156;2023-03-11T14:21:49;9.30;99.90
23087;DHT22;11712;51.134;4.156;2023-03-11T14:24:21;9.10;99.90
23087;DHT22;11712;51.134;4.156;2023-03-11T14:26:47;8.80;99.90
23087;DHT22;11712;51.134;4.156;2023-03-11T14:29:15;8.50;99.90
23087;DHT22;11712;51.134;4.156;2023-03-11T14:31:42;8.30;99.90
23087;DHT22;11712;51.134;4.156;2023-03-11T14:36:43;8.30;99.90
23087;DHT22;11712;51.134;4.156;2023-03-11T14:41:55;8.50;99.90
23087;DHT22;11712;51.134;4.156;2023-03-11T14:44:21;8.60;99.90
23087;DHT22;11712;51.134;4.156;2023-03-11T14:46:48;8.50;99.90
23087;DHT22;11712;51.134;4.156;2023-03-11T14:49:18;8.70;99.90
23087;DHT22;11712;51.134;4.156;2023-03-11T14:51:45;8.70;99.90
23087;DHT22;11712;51.134;4.156;2023-03-11T14:54:19;9.20;99.90
23087;DHT22;11712;51.134;4.156;2023-03-11T14:56:47;9.60;99.90
23087;DHT22;11712;51.134;4.156;2023-03-11T14:59:17;9.90;99.90
23087;DHT22;11712;51.134;4.156;2023-03-11T15:01:47;10.20;99.90
23087;DHT22;11712;51.134;4.156;2023-03-11T15:04:15;10.00;99.90
23087;DHT22;11712;51.134;4.156;2023-03-11T15:06:48;9.90;99.90
23087;DHT22;11712;51.134;4.156;2023-03-11T15:09:14;10.10;99.90
23087;DHT22;11712;51.134;4.156;2023-03-11T15:11:44;10.00;99.90
23087;DHT22;11712;51.134;4.156;2023-03-11T15:14:52;10.10;99.90
23087;DHT22;11712;51.134;4.156;2023-03-11T15:17:16;10.00;99.90
23087;DHT22;11712;51.134;4.156;2023-03-11T15:19:42;10.10;99.90
23087;DHT22;11712;51.134;4.156;2023-03-11T15:24:48;10.40;99.90
23087;DHT22;11712;51.134;4.156;2023-03-11T15:27:33;11.40;99.90
23087;DHT22;11712;51.134;4.156;2023-03-11T15:29:59;11.40;99.90
23087;DHT22;11712;51.134;4.156;2023-03-11T15:32:36;11.00;99.90
23087;DHT22;11712;51.134;4.156;2023-03-11T15:37:37;11.00;99.90
23087;DHT22;11712;51.134;4.156;2023-03-11T15:40:20;10.90;99.90
23087;DHT22;11712;51.134;4.156;2023-03-11T15:42:46;10.80;99.90
23087;DHT22;11712;51.134;4.156;2023-03-11T15:45:16;10.40;99.90
23087;DHT22;11712;51.134;4.156;2023-03-11T15:47:42;10.00;99.90
23087;DHT22;11712;51.134;4.156;2023-03-11T15:52:39;9.50;99.90
23087;DHT22;11712;51.134;4.156;2023-03-11T15:55:05;9.50;99.90
23087;DHT22;11712;51.134;4.156;2023-03-11T15:57:30;9.30;99.90
23087;DHT22;11712;51.134;4.156;2023-03-11T15:59:57;9.10;99.90
23087;DHT22;11712;51.134;4.156;2023-03-11T16:02:25;9.10;99.90
23087;DHT22;11712;51.134;4.156;2023-03-11T16:04:53;9.00;99.90
23087;DHT22;11712;51.134;4.156;2023-03-11T16:07:19;9.00;99.90
23087;DHT22;11712;51.134;4.156;2023-03-11T16:09:44;8.90;99.90
23087;DHT22;11712;51.134;4.156;2023-03-11T16:14:38;8.70;99.90
23087;DHT22;11712;51.134;4.156;2023-03-11T16:17:04;8.60;99.90
23087;DHT22;11712;51.134;4.156;2023-03-11T16:19:30;8.50;99.90
23087;DHT22;11712;51.134;4.156;2023-03-11T16:21:55;8.40;99.90
23087;DHT22;11712;51.134;4.156;2023-03-11T16:24:21;8.20;99.90
23087;DHT22;11712;51.134;4.156;2023-03-11T16:26:48;8.10;99.90
23087;DHT22;11712;51.134;4.156;2023-03-11T16:29:16;8.10;99.90
23087;DHT22;11712;51.134;4.156;2023-03-11T16:31:42;8.00;99.90
23087;DHT22;11712;51.134;4.156;2023-03-11T16:34:07;8.00;99.90
23087;DHT22;11712;51.134;4.156;2023-03-11T16:36:33;8.10;99.90
23087;DHT22;11712;51.134;4.156;2023-03-11T16:38:59;8.30;99.90
23087;DHT22;11712;51.134;4.156;2023-03-11T16:41:24;8.40;99.90
23087;DHT22;11712;51.134;4.156;2023-03-11T16:43:50;8.50;99.90
23087;DHT22;11712;51.134;4.156;2023-03-11T16:46:15;8.50;99.90
23087;DHT22;11712;51.134;4.156;2023-03-11T16:48:41;8.60;99.90
23087;DHT22;11712;51.134;4.156;2023-03-11T16:51:06;8.60;99.90
23087;DHT22;11712;51.134;4.156;2023-03-11T16:53:32;8.40;99.90
23087;DHT22;11712;51.134;4.156;2023-03-11T16:55:58;8.40;99.90
23087;DHT22;11712;51.134;4.156;2023-03-11T16:58:24;8.40;99.90
23087;DHT22;11712;51.134;4.156;2023-03-11T17:00:49;8.40;99.90
23087;DHT22;11712;51.134;4.156;2023-03-11T17:03:15;8.40;99.90
23087;DHT22;11712;51.134;4.156;2023-03-11T17:05:41;8.40;99.90
23087;DHT22;11712;51.134;4.156;2023-03-11T17:08:07;8.40;99.90
23087;DHT22;11712;51.134;4.156;2023-03-11T17:10:36;8.50;99.90
23087;DHT22;11712;51.134;4.156;2023-03-11T17:13:03;8.40;99.90
23087;DHT22;11712;51.134;4.156;2023-03-11T17:15:29;8.30;99.90
23087;DHT22;11712;51.134;4.156;2023-03-11T17:17:54;8.40;99.90
23087;DHT22;11712;51.134;4.156;2023-03-11T17:20:20;8.40;99.90
23087;DHT22;11712;51.134;4.156;2023-03-11T17:22:45;8.50;99.90
23087;DHT22;11712;51.134;4.156;2023-03-11T17:25:11;8.50;99.90
23087;DHT22;11712;51.134;4.156;2023-03-11T17:27:36;8.50;99.90
23087;DHT22;11712;51.134;4.156;2023-03-11T17:30:04;8.40;99.90
23087;DHT22;11712;51.134;4.156;2023-03-11T17:32:29;8.30;99.90
23087;DHT22;11712;51.134;4.156;2023-03-11T17:34:55;8.20;99.90
23087;DHT22;11712;51.134;4.156;2023-03-11T17:37:21;8.30;99.90
23087;DHT22;11712;51.134;4.156;2023-03-11T17:39:47;8.40;99.90
23087;DHT22;11712;51.134;4.156;2023-03-11T17:42:12;8.30;99.90
23087;DHT22;11712;51.134;4.156;2023-03-11T17:44:38;8.30;99.90
23087;DHT22;11712;51.134;4.156;2023-03-11T17:47:04;8.20;99.90
23087;DHT22;11712;51.134;4.156;2023-03-11T17:49:29;8.10;99.90
23087;DHT22;11712;51.134;4.156;2023-03-11T17:51:55;8.10;99.90
23087;DHT22;11712;51.134;4.156;2023-03-11T17:54:20;8.00;99.90
23087;DHT22;11712;51.134;4.156;2023-03-11T17:56:46;7.90;99.90